Time;durP1;ratioP1;P1;durP2;ratioP2;P2;SDS_P1;SDS_P2;PMS_P1;PMS_P2;Temp;Humidity;BMP_temperature;BMP_pressure;BME280_temperature;BME280_humidity;BME280_pressure;Samples;Min_cycle;Max_cycle;Signal;HPM_P1;HPM_P2
2022/11/22 00:01:31;;;;;;;24.15;17.20;;;0.50;99.90;;;;;;5093038;28;20192;-48
2022/11/22 00:03:57;;;;;;;22.00;16.35;;;0.50;99.90;;;;;;5092764;28;20220;-48
2022/11/22 00:06:25;;;;;;;20.63;15.95;;;0.30;99.90;;;;;;5092797;28;20220;-47
2022/11/22 00:08:52;;;;;;;19.88;15.23;;;-0.10;99.90;;;;;;5091962;28;20203;-47
2022/11/22 00:11:18;;;;;;;22.27;15.25;;;0.00;99.90;;;;;;5092792;28;20205;-47
2022/11/22 00:13:45;;;;;;;22.00;16.65;;;0.50;99.90;;;;;;5092769;28;20216;-47
2022/11/22 00:16:11;;;;;;;21.08;16.30;;;0.60;99.90;;;;;;5092831;28;20590;-47
2022/11/22 00:18:38;;;;;;;24.10;17.00;;;0.90;99.90;;;;;;5092259;28;20197;-46
2022/11/22 00:21:06;;;;;;;18.60;14.68;;;0.40;99.90;;;;;;5092751;28;20201;-47
2022/11/22 00:23:34;;;;;;;24.55;16.20;;;0.50;99.90;;;;;;5092339;28;20214;-47
2022/11/22 00:26:00;;;;;;;22.52;15.90;;;0.80;99.90;;;;;;5092640;28;20200;-47
2022/11/22 00:28:27;;;;;;;25.27;16.50;;;0.60;99.90;;;;;;5091833;28;20703;-47
2022/11/22 00:30:54;;;;;;;21.10;16.90;;;0.10;99.90;;;;;;5092605;28;20197;-47
2022/11/22 00:33:20;;;;;;;22.88;17.13;;;0.40;99.90;;;;;;5092504;28;20214;-47
2022/11/22 00:35:47;;;;;;;26.77;18.30;;;0.50;99.90;;;;;;5092509;28;20197;-47
2022/11/22 00:38:13;;;;;;;25.40;17.88;;;0.50;99.90;;;;;;5092813;28;20193;-46
2022/11/22 00:40:41;;;;;;;24.15;17.52;;;0.50;99.90;;;;;;5091976;28;20215;-47
2022/11/22 00:43:08;;;;;;;25.65;18.92;;;0.50;99.90;;;;;;5092247;28;20208;-46
2022/11/22 00:45:34;;;;;;;24.05;17.27;;;0.70;99.90;;;;;;5092324;28;20204;-48
2022/11/22 00:48:01;;;;;;;26.35;20.05;;;0.50;99.90;;;;;;5092227;28;20235;-47
2022/11/22 00:50:27;;;;;;;25.45;17.92;;;0.40;99.90;;;;;;5091476;28;20205;-47
2022/11/22 00:52:54;;;;;;;27.58;19.02;;;0.50;99.90;;;;;;5091955;28;20206;-46
2022/11/22 00:55:20;;;;;;;25.15;18.40;;;-0.10;99.90;;;;;;5092123;28;20560;-47
2022/11/22 00:57:48;;;;;;;27.55;18.95;;;0.30;99.90;;;;;;5092085;28;20219;-47
2022/11/22 01:00:16;;;;;;;28.40;17.70;;;0.30;99.90;;;;;;5091472;28;20205;-46
2022/11/22 01:02:43;;;;;;;29.25;19.73;;;0.30;99.90;;;;;;5092149;28;20265;-47
2022/11/22 01:05:10;;;;;;;26.00;18.70;;;0.60;99.90;;;;;;5073771;28;20321;-47
2022/11/22 01:07:36;;;;;;;28.65;19.33;;;0.40;99.90;;;;;;5091842;28;20225;-47
2022/11/22 01:10:03;;;;;;;30.35;19.70;;;0.30;99.90;;;;;;5091217;28;20570;-47
2022/11/22 01:12:30;;;;;;;30.15;19.60;;;0.40;99.90;;;;;;5092158;28;20204;-47
2022/11/22 01:14:57;;;;;;;27.58;19.70;;;0.50;99.90;;;;;;5091903;28;20223;-46
2022/11/22 01:17:24;;;;;;;28.45;19.83;;;0.40;99.90;;;;;;5091927;28;20202;-46
2022/11/22 01:19:51;;;;;;;27.27;19.58;;;0.50;99.90;;;;;;5091013;28;20215;-47
2022/11/22 01:22:17;;;;;;;27.95;19.55;;;0.20;99.90;;;;;;5091780;28;20202;-48
2022/11/22 01:24:44;;;;;;;27.45;19.27;;;0.60;99.90;;;;;;5091732;28;20307;-47
2022/11/22 01:27:11;;;;;;;28.42;19.20;;;0.30;99.90;;;;;;5091813;28;20217;-47
2022/11/22 01:29:37;;;;;;;27.38;20.05;;;0.50;99.90;;;;;;5091057;28;20198;-48
2022/11/22 01:32:05;;;;;;;30.58;20.15;;;0.30;99.90;;;;;;5091753;28;20197;-48
2022/11/22 01:34:32;;;;;;;31.20;21.08;;;0.40;99.90;;;;;;5091672;28;20213;-47
2022/11/22 01:36:59;;;;;;;30.70;20.20;;;0.20;99.90;;;;;;5091775;28;20571;-46
2022/11/22 01:39:25;;;;;;;27.05;19.75;;;0.40;99.90;;;;;;5091068;28;20193;-47
2022/11/22 01:41:52;;;;;;;28.70;19.90;;;0.50;99.90;;;;;;5091656;28;20191;-47
2022/11/22 01:44:23;;;;;;;28.25;20.05;;;0.40;99.90;;;;;;5091636;28;20223;-47
2022/11/22 01:46:54;;;;;;;30.45;20.73;;;0.50;99.90;;;;;;5091466;28;20289;-48
2022/11/22 01:49:28;;;;;;;28.65;19.42;;;0.10;99.90;;;;;;5090932;28;20571;-46
2022/11/22 01:52:00;;;;;;;28.45;19.90;;;0.00;99.90;;;;;;5091518;28;20547;-47
2022/11/22 01:54:32;;;;;;;32.20;20.90;;;-0.40;99.90;;;;;;5073277;28;20231;-48
2022/11/22 01:57:03;;;;;;;28.15;19.20;;;0.40;99.90;;;;;;5091980;28;20526;-48
2022/11/22 01:59:33;;;;;;;27.95;19.40;;;-0.40;99.90;;;;;;5090844;28;20234;-48
2022/11/22 02:02:00;;;;;;;23.55;17.52;;;0.00;99.90;;;;;;5091424;28;20201;-47
2022/11/22 02:04:32;;;;;;;26.65;19.95;;;0.20;99.90;;;;;;5091544;28;20217;-45
2022/11/22 02:07:03;;;;;;;27.73;19.80;;;0.40;99.90;;;;;;5073213;28;20205;-47
2022/11/22 02:09:32;;;;;;;29.33;19.65;;;0.40;99.90;;;;;;5090766;28;20199;-46
2022/11/22 02:12:03;;;;;;;29.77;20.65;;;0.40;99.90;;;;;;5094539;28;20208;-47
2022/11/22 02:14:31;;;;;;;26.15;20.08;;;0.40;99.90;;;;;;5095122;28;20228;-46
2022/11/22 02:16:58;;;;;;;29.77;19.88;;;0.20;99.90;;;;;;5095083;28;20253;-47
2022/11/22 02:19:37;;;;;;;27.27;19.65;;;0.40;99.90;;;;;;5094175;28;20569;-46
2022/11/22 02:22:10;;;;;;;27.77;18.73;;;0.10;99.90;;;;;;5094755;28;20203;-47
2022/11/22 02:24:42;;;;;;;27.00;18.92;;;0.00;99.90;;;;;;5094632;28;20234;-47
2022/11/22 02:27:09;;;;;;;27.15;18.15;;;0.10;99.90;;;;;;5094859;28;20688;-47
2022/11/22 02:29:36;;;;;;;27.63;18.98;;;0.20;99.90;;;;;;5094072;28;20604;-46
2022/11/22 02:32:11;;;;;;;27.25;18.98;;;0.20;99.90;;;;;;5094615;28;20195;-47
2022/11/22 02:34:43;;;;;;;31.27;21.75;;;0.30;99.90;;;;;;5094880;28;20577;-46
2022/11/22 02:37:12;;;;;;;29.40;20.67;;;0.20;99.90;;;;;;5075310;28;20586;-46
2022/11/22 02:39:41;;;;;;;29.88;19.98;;;0.40;99.90;;;;;;5093882;28;20200;-47
2022/11/22 02:42:09;;;;;;;27.58;18.98;;;-0.10;99.90;;;;;;5094532;28;20188;-47
2022/11/22 02:44:36;;;;;;;25.58;17.63;;;0.30;99.90;;;;;;5094366;28;20223;-48
2022/11/22 02:47:02;;;;;;;28.13;20.67;;;0.10;99.90;;;;;;5094350;28;20200;-48
2022/11/22 02:49:29;;;;;;;28.25;19.25;;;0.00;99.90;;;;;;5093715;28;20221;-46
2022/11/22 02:51:55;;;;;;;30.02;20.67;;;0.20;99.90;;;;;;5094232;28;20196;-47
2022/11/22 02:54:22;;;;;;;29.23;19.15;;;0.20;99.90;;;;;;5094407;28;20218;-47
2022/11/22 02:56:49;;;;;;;26.40;18.00;;;0.00;99.90;;;;;;5094289;28;20199;-47
2022/11/22 02:59:17;;;;;;;26.20;17.35;;;0.10;99.90;;;;;;5093646;28;20189;-49
2022/11/22 03:01:45;;;;;;;26.17;18.13;;;0.00;99.90;;;;;;5093950;28;20196;-46
2022/11/22 03:04:23;;;;;;;25.80;17.80;;;0.00;99.90;;;;;;5094000;28;20762;-46
2022/11/22 03:06:50;;;;;;;27.30;17.55;;;0.20;99.90;;;;;;5094048;28;20279;-46
2022/11/22 03:09:17;;;;;;;28.40;19.88;;;0.30;99.90;;;;;;5093298;28;20222;-46
2022/11/22 03:11:43;;;;;;;25.30;18.10;;;0.80;99.90;;;;;;5094168;28;20200;-47
2022/11/22 03:14:10;;;;;;;25.90;18.02;;;0.20;99.90;;;;;;5094136;28;20224;-47
2022/11/22 03:16:38;;;;;;;24.45;18.25;;;0.20;99.90;;;;;;5094216;28;20197;-48
2022/11/22 03:19:04;;;;;;;30.08;19.60;;;0.30;99.90;;;;;;5093455;28;20190;-48
2022/11/22 03:21:31;;;;;;;28.23;19.58;;;0.70;99.90;;;;;;5093258;28;20264;-47
2022/11/22 03:23:58;;;;;;;28.00;19.70;;;0.20;99.90;;;;;;5093094;28;20218;-46
2022/11/22 03:26:24;;;;;;;29.30;20.23;;;0.50;99.90;;;;;;5093680;28;20201;-48
2022/11/22 03:28:51;;;;;;;25.90;18.75;;;0.40;99.90;;;;;;5074497;28;20219;-48
2022/11/22 03:31:17;;;;;;;29.95;20.85;;;0.50;99.90;;;;;;5093543;28;20210;-47
2022/11/22 03:33:54;;;;;;;29.40;18.73;;;0.20;99.90;;;;;;5093447;28;20228;-47
2022/11/22 03:36:27;;;;;;;28.50;20.05;;;0.50;99.90;;;;;;5093531;28;20563;-47
2022/11/22 03:38:54;;;;;;;30.85;19.63;;;0.30;99.90;;;;;;5074637;28;20486;-46
2022/11/22 03:41:21;;;;;;;29.42;20.95;;;0.50;99.90;;;;;;5075027;28;20208;-46
2022/11/22 03:43:47;;;;;;;29.05;19.92;;;0.50;99.90;;;;;;5080119;28;20255;-48
2022/11/22 03:50:16;;;;;;;27.50;18.48;;;0.30;99.90;;;;;;5072396;28;20196;-49
2022/11/22 03:52:43;;;;;;;30.42;20.48;;;0.50;99.90;;;;;;5072905;28;20693;-49
2022/11/22 03:55:09;;;;;;;32.55;20.05;;;0.40;99.90;;;;;;5072811;28;20216;-48
2022/11/22 03:57:36;;;;;;;34.33;20.98;;;0.60;99.90;;;;;;5072704;28;20579;-47
2022/11/22 04:00:04;;;;;;;32.22;21.15;;;0.10;99.90;;;;;;5071949;28;20203;-47
2022/11/22 04:02:38;;;;;;;32.88;21.23;;;0.50;99.90;;;;;;5072783;28;20247;-46
2022/11/22 04:05:06;;;;;;;30.65;19.60;;;0.30;99.90;;;;;;5072496;28;20730;-47
2022/11/22 04:07:33;;;;;;;31.17;20.38;;;0.20;99.90;;;;;;5072808;28;20711;-47
2022/11/22 04:10:01;;;;;;;31.25;21.02;;;0.50;99.90;;;;;;5071831;28;20196;-47
2022/11/22 04:12:29;;;;;;;30.80;21.55;;;0.40;99.90;;;;;;5072542;28;20194;-48
2022/11/22 04:15:06;;;;;;;29.83;19.02;;;0.40;99.90;;;;;;5072368;28;20222;-47
2022/11/22 04:17:43;;;;;;;31.60;20.67;;;0.40;99.90;;;;;;5072675;28;20191;-47
2022/11/22 04:23:01;;;;;;;33.03;20.42;;;0.30;99.90;;;;;;5072106;28;20306;-48
2022/11/22 04:25:28;;;;;;;34.47;21.50;;;0.50;99.90;;;;;;5072769;28;20733;-47
2022/11/22 04:27:56;;;;;;;37.33;20.75;;;0.20;99.90;;;;;;5072117;28;20216;-48
2022/11/22 04:32:44;;;;;;;31.65;20.30;;;0.40;99.90;;;;;;5071485;28;20202;-47
2022/11/22 04:33:11;;;;;;;31.30;20.08;;;0.50;99.90;;;;;;5071657;28;20633;-46
2022/11/22 04:35:38;;;;;;;32.27;21.00;;;0.40;99.90;;;;;;5054317;28;20207;-47
2022/11/22 04:38:06;;;;;;;31.02;19.92;;;0.60;99.90;;;;;;5071933;28;20405;-47
2022/11/22 04:40:33;;;;;;;34.22;20.48;;;0.10;99.90;;;;;;5071611;28;20191;-46
2022/11/22 04:45:46;;;;;;;34.03;20.83;;;0.80;99.90;;;;;;5072136;28;20195;-47
2022/11/22 04:48:13;;;;;;;32.95;20.48;;;0.70;99.90;;;;;;5071613;28;20220;-48
2022/11/22 04:53:28;;;;;;;32.85;20.52;;;0.60;99.90;;;;;;5071873;28;20218;-47
2022/11/22 04:55:54;;;;;;;35.45;23.05;;;0.70;99.90;;;;;;5071912;28;20209;-48
2022/11/22 04:58:22;;;;;;;32.50;21.88;;;0.80;99.90;;;;;;5071695;28;20210;-48
2022/11/22 05:00:48;;;;;;;39.67;23.95;;;0.80;99.90;;;;;;5071626;28;20662;-48
2022/11/22 05:03:15;;;;;;;35.13;21.52;;;0.70;99.90;;;;;;5071717;28;20225;-48
2022/11/22 05:05:43;;;;;;;37.83;24.27;;;0.70;99.90;;;;;;5071877;28;20194;-47
2022/11/22 05:08:11;;;;;;;41.25;25.88;;;0.50;99.90;;;;;;5053550;28;20222;-46
2022/11/22 05:10:57;;;;;;;38.25;23.73;;;0.60;99.90;;;;;;5070988;28;20191;-48
2022/11/22 05:13:25;;;;;;;38.63;24.02;;;0.90;99.90;;;;;;5071652;28;20303;-47
2022/11/22 05:15:52;;;;;;;43.42;24.55;;;1.00;99.90;;;;;;5071711;28;20200;-46
2022/11/22 05:18:20;;;;;;;35.33;23.15;;;0.60;99.90;;;;;;5071660;28;20196;-48
2022/11/22 05:20:47;;;;;;;38.45;22.30;;;0.80;99.90;;;;;;5071079;28;20196;-46
2022/11/22 05:26:00;;;;;;;41.78;25.27;;;1.00;99.90;;;;;;5071841;28;20321;-46
2022/11/22 05:28:28;;;;;;;41.63;23.77;;;0.80;99.90;;;;;;5071094;28;20227;-47
2022/11/22 05:30:55;;;;;;;38.83;24.05;;;0.80;99.90;;;;;;5071575;28;20205;-47
2022/11/22 05:33:22;;;;;;;41.03;22.58;;;0.30;99.90;;;;;;5071365;28;20683;-47
2022/11/22 05:35:48;;;;;;;38.05;23.85;;;0.90;99.90;;;;;;5071408;28;20205;-47
2022/11/22 05:38:15;;;;;;;40.00;25.80;;;0.90;99.90;;;;;;5071357;28;20194;-46
2022/11/22 05:40:42;;;;;;;37.80;23.45;;;1.00;99.90;;;;;;5070729;28;20206;-47
2022/11/22 05:43:10;;;;;;;38.83;23.48;;;0.80;99.90;;;;;;5053228;28;20287;-47
2022/11/22 05:45:36;;;;;;;39.42;22.10;;;0.90;99.90;;;;;;5072601;28;20327;-47
2022/11/22 05:48:03;;;;;;;43.50;23.98;;;1.00;99.90;;;;;;5075295;28;20195;-46
2022/11/22 05:50:30;;;;;;;43.00;23.90;;;1.00;99.90;;;;;;5074409;28;20571;-46
2022/11/22 05:53:00;;;;;;;43.60;24.98;;;0.80;99.90;;;;;;5075097;28;20202;-47
2022/11/22 05:55:27;;;;;;;39.53;22.95;;;1.00;99.90;;;;;;5074873;28;20670;-44
2022/11/22 05:57:53;;;;;;;40.13;24.10;;;1.00;99.90;;;;;;5074720;28;20548;-46
2022/11/22 06:00:21;;;;;;;35.13;22.23;;;0.80;99.90;;;;;;5074242;28;20205;-48
2022/11/22 06:02:48;;;;;;;37.63;22.67;;;0.70;99.90;;;;;;5074741;28;20225;-49
2022/11/22 06:05:15;;;;;;;40.88;25.05;;;0.90;99.90;;;;;;5074685;28;20228;-46
2022/11/22 06:07:41;;;;;;;36.08;22.02;;;1.10;99.90;;;;;;5074896;28;20214;-46
2022/11/22 06:10:09;;;;;;;41.80;21.98;;;0.90;99.90;;;;;;5073966;28;20222;-46
2022/11/22 06:12:35;;;;;;;40.22;23.20;;;1.00;99.90;;;;;;5074700;28;20689;-47
2022/11/22 06:15:02;;;;;;;42.95;23.27;;;1.10;99.90;;;;;;5074522;28;20219;-47
2022/11/22 06:17:30;;;;;;;36.70;22.98;;;0.90;99.90;;;;;;5074452;28;20204;-47
2022/11/22 06:19:56;;;;;;;39.97;23.30;;;0.70;99.90;;;;;;5073877;28;20564;-48
2022/11/22 06:22:23;;;;;;;38.75;22.25;;;0.40;99.90;;;;;;5074437;28;20197;-47
2022/11/22 06:24:49;;;;;;;35.15;22.20;;;1.10;99.90;;;;;;5056080;28;20219;-48
2022/11/22 06:27:16;;;;;;;39.13;22.77;;;0.90;99.90;;;;;;5074036;28;20202;-47
2022/11/22 06:29:43;;;;;;;37.85;22.27;;;1.00;99.90;;;;;;5073668;28;20222;-46
2022/11/22 06:32:09;;;;;;;34.05;22.05;;;0.90;99.90;;;;;;5073929;28;20568;-48
2022/11/22 06:34:37;;;;;;;38.13;21.92;;;1.20;99.90;;;;;;5055375;28;20222;-47
2022/11/22 06:37:04;;;;;;;35.80;22.70;;;1.00;99.90;;;;;;5073781;28;20195;-46
2022/11/22 06:39:30;;;;;;;37.95;23.45;;;1.00;99.90;;;;;;5073219;28;20243;-46
2022/11/22 06:41:57;;;;;;;39.97;24.15;;;1.20;99.90;;;;;;5073995;28;20225;-47
2022/11/22 06:44:24;;;;;;;40.70;22.25;;;1.00;99.90;;;;;;5073906;28;20639;-47
2022/11/22 06:46:51;;;;;;;43.20;23.17;;;1.20;99.90;;;;;;5073406;28;20689;-47
2022/11/22 06:49:18;;;;;;;34.42;22.67;;;1.10;99.90;;;;;;5072819;28;20230;-48
2022/11/22 06:51:46;;;;;;;36.75;23.40;;;1.10;99.90;;;;;;5073767;28;20637;-48
2022/11/22 06:54:14;;;;;;;36.65;23.10;;;1.20;99.90;;;;;;5073715;28;20710;-48
2022/11/22 06:56:41;;;;;;;41.15;24.25;;;1.30;99.90;;;;;;5073173;28;20576;-47
2022/11/22 06:59:08;;;;;;;34.80;22.52;;;1.10;99.90;;;;;;5072955;28;20195;-48
2022/11/22 07:01:36;;;;;;;37.83;24.10;;;1.20;99.90;;;;;;5073143;28;20205;-47
2022/11/22 07:04:04;;;;;;;36.55;23.00;;;1.30;99.90;;;;;;5073401;28;20225;-48
2022/11/22 07:06:32;;;;;;;40.58;23.30;;;1.20;99.90;;;;;;5073571;28;20244;-48
2022/11/22 07:09:01;;;;;;;37.80;23.83;;;1.30;99.90;;;;;;5072543;28;20217;-47
2022/11/22 07:11:29;;;;;;;40.53;22.83;;;1.10;99.90;;;;;;5073343;28;20199;-48
2022/11/22 07:13:57;;;;;;;40.28;23.38;;;1.20;99.90;;;;;;5073053;28;20230;-49
2022/11/22 07:16:23;;;;;;;36.13;21.30;;;0.90;99.90;;;;;;5073000;28;20433;-48
2022/11/22 07:18:50;;;;;;;38.00;22.40;;;1.50;99.90;;;;;;5072516;28;20287;-48
2022/11/22 07:21:19;;;;;;;38.58;22.63;;;1.30;99.90;;;;;;5055218;28;20213;-47
2022/11/22 07:23:50;;;;;;;37.90;23.90;;;1.20;99.90;;;;;;5072819;28;20607;-47
2022/11/22 07:26:19;;;;;;;42.17;24.65;;;1.10;99.90;;;;;;5073358;28;20191;-47
2022/11/22 07:28:47;;;;;;;39.33;23.95;;;1.20;99.90;;;;;;5072439;28;20233;-47
2022/11/22 07:31:16;;;;;;;43.80;22.92;;;1.20;99.90;;;;;;5073349;28;20547;-47
2022/11/22 07:33:43;;;;;;;37.83;22.50;;;1.60;99.90;;;;;;5072833;28;20241;-47
2022/11/22 07:36:12;;;;;;;39.08;25.20;;;1.50;99.90;;;;;;5072676;28;20706;-47
2022/11/22 07:38:39;;;;;;;40.20;24.98;;;1.30;99.90;;;;;;5072134;28;20201;-48
2022/11/22 07:41:06;;;;;;;37.35;23.48;;;1.40;99.90;;;;;;5072747;28;20192;-48
2022/11/22 07:43:35;;;;;;;34.05;23.80;;;1.40;99.90;;;;;;5072551;28;20225;-47
2022/11/22 07:46:01;;;;;;;37.88;22.77;;;1.40;99.90;;;;;;5072888;28;20550;-47
2022/11/22 07:48:28;;;;;;;41.13;24.58;;;1.40;99.90;;;;;;5072120;28;20206;-48
2022/11/22 07:50:55;;;;;;;37.45;21.40;;;1.70;99.90;;;;;;5072929;28;20213;-47
2022/11/22 07:53:21;;;;;;;43.60;24.95;;;1.40;99.90;;;;;;5072408;28;20218;-46
2022/11/22 07:55:48;;;;;;;36.20;23.73;;;1.60;99.90;;;;;;5072870;28;20563;-46
2022/11/22 07:58:15;;;;;;;38.60;23.08;;;1.50;99.90;;;;;;5072210;28;20203;-48
2022/11/22 08:00:42;;;;;;;33.58;22.33;;;1.70;99.90;;;;;;5072375;28;20191;-47
2022/11/22 08:03:09;;;;;;;37.28;22.08;;;1.10;99.90;;;;;;5071795;28;20205;-47
2022/11/22 08:05:36;;;;;;;36.58;22.35;;;1.80;99.90;;;;;;5072034;28;20221;-47
2022/11/22 08:08:02;;;;;;;39.22;23.10;;;1.30;99.90;;;;;;5072126;28;20206;-46
2022/11/22 08:10:29;;;;;;;38.50;24.50;;;1.10;99.90;;;;;;5072423;28;20219;-48
2022/11/22 08:12:58;;;;;;;38.05;23.10;;;1.90;99.90;;;;;;5072268;28;20196;-47
2022/11/22 08:15:25;;;;;;;37.22;22.05;;;1.10;99.90;;;;;;5072322;28;20671;-46
2022/11/22 08:17:53;;;;;;;35.13;22.52;;;1.50;99.90;;;;;;5072379;28;20207;-47
2022/11/22 08:20:19;;;;;;;33.40;22.52;;;1.80;99.90;;;;;;5071690;28;20198;-47
2022/11/22 08:22:46;;;;;;;36.60;24.27;;;1.80;99.90;;;;;;5072158;28;20202;-47
2022/11/22 08:25:13;;;;;;;41.28;25.20;;;1.60;99.90;;;;;;5071801;28;20223;-47
2022/11/22 08:27:40;;;;;;;41.33;25.10;;;1.10;99.90;;;;;;5072282;28;20199;-48
2022/11/22 08:30:07;;;;;;;42.70;25.27;;;1.90;99.90;;;;;;5070637;28;20219;-48
2022/11/22 08:32:34;;;;;;;36.33;23.77;;;1.70;99.90;;;;;;5071994;28;20208;-47
2022/11/22 08:35:02;;;;;;;43.60;23.83;;;1.70;99.90;;;;;;5071903;28;20603;-46
2022/11/22 08:37:29;;;;;;;37.38;24.27;;;2.00;99.90;;;;;;5071401;28;20191;-46
2022/11/22 08:39:56;;;;;;;41.88;24.85;;;1.70;99.90;;;;;;5071051;28;20192;-47
2022/11/22 08:42:23;;;;;;;39.33;23.10;;;1.80;99.90;;;;;;5071420;28;20566;-47
2022/11/22 08:44:49;;;;;;;44.38;25.02;;;1.40;99.90;;;;;;5071760;28;20223;-47
2022/11/22 08:47:16;;;;;;;41.75;25.63;;;1.80;99.90;;;;;;5071750;28;20195;-47
2022/11/22 08:49:42;;;;;;;44.13;25.45;;;1.90;99.90;;;;;;5070503;28;20218;-46
2022/11/22 08:52:10;;;;;;;36.88;22.83;;;2.00;99.90;;;;;;5071278;28;20264;-47
2022/11/22 08:54:37;;;;;;;39.70;24.88;;;2.00;99.90;;;;;;5071269;28;20226;-47
2022/11/22 08:57:04;;;;;;;41.25;24.17;;;2.10;99.90;;;;;;5071381;28;20225;-47
2022/11/22 08:59:30;;;;;;;39.10;24.38;;;2.00;99.90;;;;;;5070795;28;20217;-47
2022/11/22 09:01:57;;;;;;;48.47;25.52;;;1.90;99.90;;;;;;5071804;28;20195;-47
2022/11/22 09:04:24;;;;;;;50.35;27.00;;;2.30;99.90;;;;;;5071671;28;20229;-47
2022/11/22 09:06:50;;;;;;;48.72;27.02;;;2.20;99.90;;;;;;5071434;28;20560;-48
2022/11/22 09:09:18;;;;;;;45.60;25.13;;;2.00;99.90;;;;;;5070697;28;20310;-47
2022/11/22 09:11:45;;;;;;;44.95;23.15;;;1.90;99.90;;;;;;5053240;28;20207;-47
2022/11/22 09:14:12;;;;;;;42.60;24.75;;;2.20;99.90;;;;;;5070993;28;20233;-47
2022/11/22 09:16:38;;;;;;;46.45;25.27;;;2.00;99.90;;;;;;5071540;28;20623;-47
2022/11/22 09:19:05;;;;;;;45.72;26.48;;;2.00;99.90;;;;;;5070794;28;20203;-47
2022/11/22 09:21:31;;;;;;;40.38;25.00;;;1.60;99.90;;;;;;5074181;28;20198;-45
2022/11/22 09:23:58;;;;;;;48.20;27.58;;;2.30;99.90;;;;;;5074936;28;20227;-46
2022/11/22 09:26:26;;;;;;;45.25;28.10;;;1.80;99.90;;;;;;5074856;28;20199;-48
2022/11/22 09:28:53;;;;;;;46.78;25.70;;;2.00;99.90;;;;;;5056819;28;20218;-47
2022/11/22 09:31:21;;;;;;;46.15;26.00;;;2.40;99.90;;;;;;5057130;28;20231;-47
2022/11/22 09:33:48;;;;;;;39.80;25.33;;;2.50;99.90;;;;;;5075512;28;20222;-47
2022/11/22 09:36:17;;;;;;;50.42;26.83;;;2.30;99.90;;;;;;5075780;28;20199;-47
2022/11/22 09:38:44;;;;;;;49.90;27.33;;;2.20;99.90;;;;;;5074910;28;20199;-46
2022/11/22 09:41:23;;;;;;;44.20;27.13;;;2.30;99.90;;;;;;5075587;28;20193;-45
2022/11/22 09:44:01;;;;;;;49.38;26.42;;;2.60;99.90;;;;;;5056804;28;20226;-47
2022/11/22 09:46:40;;;;;;;44.95;27.13;;;2.70;99.90;;;;;;5074981;28;20218;-47
2022/11/22 09:49:24;;;;;;;43.70;25.40;;;2.70;99.90;;;;;;5074515;28;20202;-46
2022/11/22 09:51:58;;;;;;;46.08;26.77;;;2.80;99.90;;;;;;5075018;28;20215;-46
2022/11/22 09:54:30;;;;;;;51.20;27.25;;;2.40;99.90;;;;;;5074642;28;20288;-47
2022/11/22 09:57:00;;;;;;;45.10;26.42;;;2.70;99.90;;;;;;5075147;28;20191;-47
2022/11/22 09:59:32;;;;;;;48.28;26.88;;;2.70;99.90;;;;;;5074360;28;20222;-46
2022/11/22 10:02:04;;;;;;;43.75;26.33;;;2.90;99.90;;;;;;5075120;28;20202;-46
2022/11/22 10:04:35;;;;;;;48.00;26.00;;;2.10;99.90;;;;;;5075413;28;20221;-46
2022/11/22 10:07:07;;;;;;;50.00;25.63;;;3.00;99.90;;;;;;5075069;28;20571;-48
2022/11/22 10:09:40;;;;;;;46.85;25.33;;;2.80;99.90;;;;;;5074301;28;20207;-49
2022/11/22 10:12:12;;;;;;;73.90;45.22;;;2.80;99.90;;;;;;5056500;28;20571;-47
2022/11/22 10:14:48;;;;;;;57.45;32.88;;;2.80;99.90;;;;;;5074904;28;20767;-47
2022/11/22 10:17:35;;;;;;;38.60;25.00;;;2.90;99.90;;;;;;5075328;28;20211;-47
2022/11/22 10:20:11;;;;;;;49.67;26.80;;;2.70;99.90;;;;;;5074873;28;20195;-48
2022/11/22 10:22:38;;;;;;;48.53;26.85;;;3.00;99.90;;;;;;5075267;28;20207;-48
2022/11/22 10:25:14;;;;;;;49.42;26.60;;;2.90;99.90;;;;;;5075626;28;20227;-48
2022/11/22 10:27:42;;;;;;;44.90;26.33;;;2.70;99.90;;;;;;5075601;28;20221;-47
2022/11/22 10:30:15;;;;;;;48.15;26.50;;;2.20;99.90;;;;;;5074773;28;20234;-48
2022/11/22 10:32:59;;;;;;;48.03;27.23;;;2.90;99.90;;;;;;5075050;28;20196;-46
2022/11/22 10:35:57;;;;;;;48.92;27.25;;;2.90;99.90;;;;;;5056953;28;20295;-46
2022/11/22 10:38:38;;;;;;;43.33;25.77;;;2.90;99.90;;;;;;5057006;28;20207;-47
2022/11/22 10:41:16;;;;;;;44.88;27.17;;;2.80;99.90;;;;;;5075526;28;20207;-46
2022/11/22 10:43:49;;;;;;;45.78;25.98;;;2.80;99.90;;;;;;5075343;28;20234;-47
2022/11/22 10:46:24;;;;;;;49.92;27.92;;;2.70;99.90;;;;;;5075263;28;20200;-47
2022/11/22 10:49:00;;;;;;;51.20;27.38;;;3.00;99.90;;;;;;5073224;28;20210;-48
2022/11/22 10:51:33;;;;;;;44.03;26.02;;;2.40;99.90;;;;;;5074883;28;20659;-46
2022/11/22 10:54:09;;;;;;;46.42;26.45;;;3.10;99.90;;;;;;5073579;28;20563;-47
2022/11/22 10:56:43;;;;;;;51.80;28.83;;;2.90;99.90;;;;;;5073373;28;20213;-47
2022/11/22 10:59:28;;;;;;;50.97;28.95;;;3.30;99.90;;;;;;5073040;28;20315;-47
2022/11/22 11:02:02;;;;;;;42.35;26.45;;;3.00;99.90;;;;;;5056040;28;20674;-46
2022/11/22 11:04:33;;;;;;;50.80;25.80;;;2.90;99.90;;;;;;5073321;28;20589;-46
2022/11/22 11:07:01;;;;;;;43.42;26.52;;;2.60;99.90;;;;;;5074630;28;20187;-47
2022/11/22 11:09:34;;;;;;;51.25;27.77;;;2.70;99.90;;;;;;5072134;28;20200;-46
2022/11/22 11:12:06;;;;;;;42.13;26.33;;;3.20;99.90;;;;;;5073407;28;20236;-48
2022/11/22 11:14:38;;;;;;;44.83;25.35;;;3.40;99.90;;;;;;5073702;28;20343;-47
2022/11/22 11:17:07;;;;;;;47.85;27.35;;;3.30;99.90;;;;;;5056205;28;20211;-46
2022/11/22 11:19:38;;;;;;;49.25;26.63;;;3.30;99.90;;;;;;5054806;28;20199;-48
2022/11/22 11:22:16;;;;;;;53.17;26.40;;;3.60;99.90;;;;;;5073935;28;20200;-47
2022/11/22 11:24:42;;;;;;;48.03;27.60;;;3.50;99.90;;;;;;5073161;28;20595;-47
2022/11/22 11:27:11;;;;;;;47.10;26.90;;;3.40;99.90;;;;;;5072972;28;20193;-47
2022/11/22 11:29:42;;;;;;;52.42;29.48;;;3.40;99.90;;;;;;5072038;28;20203;-49
2022/11/22 11:32:15;;;;;;;40.70;25.52;;;3.70;99.90;;;;;;5072885;28;20211;-47
2022/11/22 11:34:50;;;;;;;46.75;29.13;;;3.60;99.90;;;;;;5072516;28;20215;-48
2022/11/22 11:37:26;;;;;;;48.40;27.85;;;3.50;99.90;;;;;;5072607;28;20221;-46
2022/11/22 11:39:52;;;;;;;43.53;26.45;;;3.60;99.90;;;;;;5072284;28;20210;-47
2022/11/22 11:42:27;;;;;;;50.30;32.20;;;3.70;99.90;;;;;;5071552;28;20433;-47
2022/11/22 11:45:15;;;;;;;46.65;27.35;;;3.90;99.90;;;;;;5071621;28;20301;-48
2022/11/22 11:47:43;;;;;;;44.50;27.27;;;4.00;99.90;;;;;;5072484;28;20199;-47
2022/11/22 11:50:17;;;;;;;45.80;28.33;;;4.10;99.90;;;;;;5071995;28;20215;-47
2022/11/22 11:52:50;;;;;;;55.33;28.00;;;3.90;99.90;;;;;;5072588;28;20667;-48
2022/11/22 11:55:17;;;;;;;47.22;27.85;;;4.00;99.90;;;;;;5072893;28;20221;-47
2022/11/22 11:57:44;;;;;;;49.65;27.98;;;4.00;99.90;;;;;;5073542;28;20226;-46
2022/11/22 12:00:20;;;;;;;50.58;26.23;;;3.70;99.90;;;;;;5072322;28;20203;-47
2022/11/22 12:02:50;;;;;;;46.13;26.80;;;4.00;99.90;;;;;;5072720;28;20195;-48
2022/11/22 12:05:26;;;;;;;45.58;26.17;;;3.50;99.90;;;;;;5072269;28;20702;-47
2022/11/22 12:07:53;;;;;;;40.63;26.17;;;4.00;99.90;;;;;;5054152;28;20199;-48
2022/11/22 12:10:38;;;;;;;49.20;29.52;;;4.10;99.90;;;;;;5070993;28;20442;-47
2022/11/22 12:13:16;;;;;;;42.30;27.10;;;4.10;99.90;;;;;;5071857;28;20206;-47
2022/11/22 12:15:51;;;;;;;42.47;25.83;;;4.10;99.90;;;;;;5071999;28;20252;-47
2022/11/22 12:18:32;;;;;;;42.38;26.30;;;4.10;99.90;;;;;;5072121;28;20637;-47
2022/11/22 12:21:07;;;;;;;41.42;24.67;;;3.90;99.90;;;;;;5072190;28;20313;-47
2022/11/22 12:23:40;;;;;;;48.20;27.60;;;4.00;99.90;;;;;;5071558;28;20222;-47
2022/11/22 12:26:07;;;;;;;48.08;28.13;;;3.90;99.90;;;;;;5072147;28;20203;-47
2022/11/22 12:28:33;;;;;;;42.90;25.98;;;4.10;99.90;;;;;;5071206;28;20195;-48
2022/11/22 12:31:06;;;;;;;45.55;26.35;;;3.30;99.90;;;;;;5072413;28;20234;-48
2022/11/22 12:33:37;;;;;;;45.08;26.30;;;4.00;99.90;;;;;;5072466;28;20729;-47
2022/11/22 12:36:04;;;;;;;45.83;26.27;;;3.80;99.90;;;;;;5071909;28;20194;-47
2022/11/22 12:38:33;;;;;;;48.17;29.17;;;4.10;99.90;;;;;;5071221;28;20275;-46
2022/11/22 12:41:04;;;;;;;49.53;25.80;;;3.90;99.90;;;;;;5071666;28;20206;-47
2022/11/22 12:43:35;;;;;;;44.38;25.95;;;3.90;99.90;;;;;;5071458;28;20254;-47
2022/11/22 12:46:09;;;;;;;47.60;27.00;;;3.40;99.90;;;;;;5071856;28;20282;-47
2022/11/22 12:48:44;;;;;;;42.60;26.00;;;4.10;99.90;;;;;;5071111;28;20199;-48
2022/11/22 12:51:17;;;;;;;44.33;27.85;;;4.00;99.90;;;;;;5071548;28;20214;-47
2022/11/22 12:53:46;;;;;;;44.13;26.17;;;4.10;99.90;;;;;;5071299;28;20215;-49
2022/11/22 12:56:22;;;;;;;49.83;27.45;;;3.90;99.90;;;;;;5071477;28;20191;-48
2022/11/22 12:58:55;;;;;;;48.45;26.50;;;4.10;99.90;;;;;;5070942;28;20583;-47
2022/11/22 13:01:28;;;;;;;48.67;28.27;;;3.90;99.90;;;;;;5053137;28;20203;-47